createdAt,value
2019-05-14T00:01:48.026Z,100.00
2019-05-14T00:04:16.748Z,100.00
2019-05-14T00:06:45.574Z,100.00
2019-05-14T00:09:14.301Z,100.00
2019-05-14T00:11:43.026Z,100.00
2019-05-14T00:14:11.928Z,100.00
2019-05-14T00:16:42.405Z,100.00
2019-05-14T00:19:11.387Z,100.00
2019-05-14T00:21:42.271Z,100.00
2019-05-14T00:24:11.365Z,99.59
2019-05-14T00:26:42.555Z,98.92
2019-05-14T00:29:11.513Z,100.00
2019-05-14T00:31:42.427Z,100.00
2019-05-14T00:34:11.292Z,99.37
2019-05-14T00:36:41.609Z,99.98
2019-05-14T00:39:11.326Z,100.00
2019-05-14T00:41:41.995Z,100.00
2019-05-14T00:44:10.853Z,100.00
2019-05-14T00:46:41.087Z,100.00
2019-05-14T00:49:11.878Z,100.00
2019-05-14T00:51:41.273Z,100.00
2019-05-14T00:54:11.232Z,100.00
2019-05-14T00:56:41.727Z,100.00
2019-05-14T00:59:11.354Z,100.00
2019-05-14T01:01:42.295Z,100.00
2019-05-14T01:04:11.822Z,100.00
2019-05-14T01:06:42.049Z,100.00
2019-05-14T01:09:11.496Z,100.00
2019-05-14T01:11:42.068Z,100.00
2019-05-14T01:14:12.276Z,100.00
2019-05-14T01:16:42.412Z,100.00
2019-05-14T01:19:12.368Z,100.00
2019-05-14T01:21:41.818Z,100.00
2019-05-14T01:24:12.623Z,100.00
2019-05-14T01:26:41.610Z,100.00
2019-05-14T01:29:11.946Z,100.00
2019-05-14T01:31:41.803Z,100.00
2019-05-14T01:34:11.226Z,100.00
2019-05-14T01:36:41.383Z,100.00
2019-05-14T01:39:12.143Z,100.00
2019-05-14T01:41:42.322Z,100.00
2019-05-14T01:44:11.964Z,100.00
2019-05-14T01:46:42.020Z,100.00
2019-05-14T01:49:12.054Z,100.00
2019-05-14T01:51:42.343Z,100.00
2019-05-14T01:54:11.912Z,100.00
2019-05-14T01:56:42.327Z,100.00
2019-05-14T01:59:12.116Z,100.00
2019-05-14T02:01:41.621Z,100.00
2019-05-14T02:04:11.597Z,100.00
2019-05-14T02:06:41.383Z,100.00
2019-05-14T02:09:11.110Z,100.00
2019-05-14T02:11:41.544Z,100.00
2019-05-14T02:14:11.692Z,100.00
2019-05-14T02:16:42.322Z,100.00
2019-05-14T02:19:11.635Z,100.00
2019-05-14T02:21:42.497Z,100.00
2019-05-14T02:24:11.474Z,100.00
2019-05-14T02:26:42.497Z,100.00
2019-05-14T02:29:12.475Z,100.00
2019-05-14T02:31:41.503Z,100.00
2019-05-14T02:34:10.528Z,100.00
2019-05-14T02:36:40.103Z,100.00
2019-05-14T02:39:10.124Z,100.00
2019-05-14T02:41:39.475Z,100.00
2019-05-14T02:44:09.972Z,100.00
2019-05-14T02:46:40.475Z,100.00
2019-05-14T02:49:10.450Z,100.00
2019-05-14T02:51:39.661Z,100.00
2019-05-14T02:54:10.032Z,100.00
2019-05-14T02:56:44.331Z,100.00
2019-05-14T02:59:19.815Z,100.00
2019-05-14T03:01:58.884Z,100.00
2019-05-14T03:04:26.197Z,100.00
2019-05-14T03:06:54.918Z,100.00
2019-05-14T03:09:23.754Z,100.00
2019-05-14T03:11:52.710Z,100.00
2019-05-14T03:14:21.451Z,100.00
2019-05-14T03:16:50.288Z,100.00
2019-05-14T03:19:19.772Z,100.00
2019-05-14T03:21:50.066Z,100.00
2019-05-14T03:24:19.720Z,100.00
2019-05-14T03:26:49.969Z,100.00
2019-05-14T03:29:19.652Z,100.00
2019-05-14T03:31:52.449Z,100.00
2019-05-14T03:34:22.040Z,100.00
2019-05-14T03:36:52.885Z,100.00
2019-05-14T03:39:20.112Z,100.00
2019-05-14T03:41:49.957Z,100.00
2019-05-14T03:44:19.974Z,100.00
2019-05-14T03:46:54.718Z,100.00
2019-05-14T03:49:20.053Z,100.00
2019-05-14T03:51:49.802Z,100.00
2019-05-14T03:54:19.595Z,100.00
2019-05-14T03:56:49.609Z,100.00
2019-05-14T03:59:19.921Z,100.00
2019-05-14T04:01:50.982Z,100.00
2019-05-14T04:04:19.899Z,100.00
2019-05-14T04:06:49.939Z,100.00
2019-05-14T04:09:20.674Z,100.00
2019-05-14T04:11:51.179Z,100.00
2019-05-14T04:14:22.798Z,100.00
2019-05-14T04:17:08.028Z,100.00
2019-05-14T04:19:24.972Z,100.00
2019-05-14T04:21:54.758Z,100.00
2019-05-14T04:24:24.444Z,100.00
2019-05-14T04:27:03.424Z,100.00
2019-05-14T04:29:30.718Z,100.00
2019-05-14T04:32:00.340Z,100.00
2019-05-14T04:34:30.154Z,99.86
2019-05-14T04:36:59.645Z,100.00
2019-05-14T04:39:30.728Z,100.00
2019-05-14T04:42:00.038Z,99.85
2019-05-14T04:44:29.919Z,99.27
2019-05-14T04:46:59.955Z,98.34
2019-05-14T04:49:29.445Z,97.57
2019-05-14T04:51:59.594Z,97.68
2019-05-14T04:54:30.239Z,97.64
2019-05-14T04:57:00.152Z,96.81
2019-05-14T04:59:29.913Z,94.93
2019-05-14T05:02:00.086Z,95.13
2019-05-14T05:04:29.797Z,95.42
2019-05-14T05:06:59.431Z,96.48
2019-05-14T05:09:29.264Z,97.07
2019-05-14T05:11:59.760Z,98.39
2019-05-14T05:14:29.658Z,99.41
2019-05-14T05:16:59.744Z,100.00
2019-05-14T05:19:29.164Z,100.00
2019-05-14T05:21:58.706Z,100.00
2019-05-14T05:24:28.733Z,100.00
2019-05-14T05:26:58.574Z,100.00
2019-05-14T05:29:28.606Z,100.00
2019-05-14T05:31:59.413Z,100.00
2019-05-14T05:34:28.428Z,100.00
2019-05-14T05:36:59.244Z,100.00
2019-05-14T05:39:28.375Z,100.00
2019-05-14T05:41:58.510Z,100.00
2019-05-14T05:44:28.709Z,100.00
2019-05-14T05:46:59.733Z,100.00
2019-05-14T05:49:29.125Z,100.00
2019-05-14T05:51:59.191Z,100.00
2019-05-14T05:54:29.221Z,100.00
2019-05-14T05:56:58.341Z,100.00
2019-05-14T05:59:29.337Z,99.30
2019-05-14T06:01:58.632Z,100.00
2019-05-14T06:04:29.060Z,100.00
2019-05-14T06:06:59.058Z,100.00
2019-05-14T06:09:28.810Z,100.00
2019-05-14T06:11:59.225Z,100.00
2019-05-14T06:14:29.144Z,100.00
2019-05-14T06:16:59.068Z,100.00
2019-05-14T06:19:29.019Z,100.00
2019-05-14T06:21:59.657Z,100.00
2019-05-14T06:24:28.748Z,100.00
2019-05-14T06:26:58.649Z,100.00
2019-05-14T06:29:29.015Z,100.00
2019-05-14T06:31:58.912Z,100.00
2019-05-14T06:34:29.108Z,100.00
2019-05-14T06:36:59.120Z,100.00
2019-05-14T06:39:28.628Z,100.00
2019-05-14T06:41:58.560Z,100.00
2019-05-14T06:44:29.402Z,100.00
2019-05-14T06:46:59.111Z,100.00
2019-05-14T06:49:28.981Z,100.00
2019-05-14T06:51:59.490Z,100.00
2019-05-14T06:54:29.330Z,100.00
2019-05-14T06:56:58.443Z,100.00
2019-05-14T06:59:28.740Z,100.00
2019-05-14T07:01:58.194Z,100.00
2019-05-14T07:04:28.863Z,100.00
2019-05-14T07:06:59.144Z,100.00
2019-05-14T07:09:28.984Z,100.00
2019-05-14T07:11:58.606Z,100.00
2019-05-14T07:14:28.315Z,100.00
2019-05-14T07:16:58.918Z,100.00
2019-05-14T07:19:29.359Z,100.00
2019-05-14T07:21:58.463Z,100.00
2019-05-14T07:24:28.273Z,100.00
2019-05-14T07:26:58.710Z,100.00
2019-05-14T07:29:29.275Z,100.00
2019-05-14T07:31:59.336Z,100.00
2019-05-14T07:34:28.489Z,100.00
2019-05-14T07:36:58.732Z,100.00
2019-05-14T07:39:29.094Z,100.00
2019-05-14T07:41:59.097Z,100.00
2019-05-14T07:44:29.643Z,100.00
2019-05-14T07:46:59.027Z,100.00
2019-05-14T07:49:29.677Z,100.00
2019-05-14T07:52:01.123Z,100.00
2019-05-14T07:54:29.940Z,100.00
2019-05-14T07:56:59.166Z,100.00
2019-05-14T07:59:34.771Z,100.00
2019-05-14T08:02:03.643Z,100.00
2019-05-14T08:04:32.380Z,100.00
2019-05-14T08:07:01.119Z,100.00
2019-05-14T08:09:29.932Z,100.00
2019-05-14T08:11:58.927Z,100.00
2019-05-14T08:14:29.378Z,100.00
2019-05-14T08:16:59.519Z,100.00
2019-05-14T08:19:31.525Z,100.00
2019-05-14T08:21:59.142Z,100.00
2019-05-14T08:24:30.110Z,100.00
2019-05-14T08:26:58.521Z,100.00
2019-05-14T08:29:28.641Z,100.00
2019-05-14T08:31:58.234Z,100.00
2019-05-14T08:34:30.419Z,100.00
2019-05-14T08:36:58.929Z,100.00
2019-05-14T08:39:28.559Z,100.00
2019-05-14T08:42:03.674Z,100.00
2019-05-14T08:44:29.363Z,100.00
2019-05-14T08:46:59.007Z,100.00
2019-05-14T08:49:38.968Z,100.00
2019-05-14T08:51:59.494Z,100.00
2019-05-14T08:54:28.581Z,100.00
2019-05-14T08:56:58.452Z,100.00
2019-05-14T08:59:28.626Z,100.00
2019-05-14T09:02:05.834Z,100.00
2019-05-14T09:04:30.160Z,100.00
2019-05-14T09:06:58.678Z,100.00
2019-05-14T09:09:29.073Z,100.00
2019-05-14T09:12:00.331Z,100.00
2019-05-14T09:14:29.183Z,100.00
2019-05-14T09:17:00.142Z,100.00
2019-05-14T09:19:30.529Z,100.00
2019-05-14T09:21:59.410Z,100.00
2019-05-14T09:24:29.413Z,98.81
2019-05-14T09:26:59.240Z,98.41
2019-05-14T09:29:29.714Z,98.42
2019-05-14T09:31:59.310Z,98.61
2019-05-14T09:34:29.121Z,96.08
2019-05-14T09:36:59.343Z,95.36
2019-05-14T09:39:31.458Z,95.59
2019-05-14T09:42:01.643Z,95.41
2019-05-14T09:44:30.412Z,94.10
2019-05-14T09:46:59.550Z,96.58
2019-05-14T09:49:28.409Z,96.50
2019-05-14T09:51:58.592Z,96.98
2019-05-14T09:54:28.805Z,96.95
2019-05-14T09:56:59.185Z,95.64
2019-05-14T09:59:28.458Z,95.68
2019-05-14T10:01:58.524Z,96.53
2019-05-14T10:04:27.589Z,95.83
2019-05-14T10:06:59.063Z,95.39
2019-05-14T10:09:28.974Z,93.69
2019-05-14T10:11:58.080Z,93.53
2019-05-14T10:14:29.612Z,93.49
2019-05-14T10:16:58.313Z,92.86
2019-05-14T10:19:29.642Z,92.25
2019-05-14T10:21:58.842Z,91.75
2019-05-14T10:24:29.099Z,95.34
2019-05-14T10:26:58.647Z,94.73
2019-05-14T10:29:28.615Z,95.76
2019-05-14T10:31:59.212Z,95.22
2019-05-14T10:34:28.717Z,95.39
2019-05-14T10:36:59.074Z,94.19
2019-05-14T10:39:29.877Z,93.60
2019-05-14T10:41:58.587Z,93.38
2019-05-14T10:44:29.317Z,92.00
2019-05-14T10:46:58.274Z,89.45
2019-05-14T10:49:29.744Z,89.36
2019-05-14T10:51:58.576Z,93.30
2019-05-14T10:54:29.242Z,92.43
2019-05-14T10:56:59.088Z,91.72
2019-05-14T10:59:31.261Z,90.37
2019-05-14T11:19:05.210Z,79.49
2019-05-14T11:21:34.011Z,78.33
2019-05-14T11:24:05.794Z,79.91
2019-05-14T11:26:35.163Z,76.36
2019-05-14T11:29:03.872Z,76.97
2019-05-14T11:31:34.375Z,79.69
2019-05-14T11:34:04.076Z,79.47
2019-05-14T11:36:32.832Z,80.43
2019-05-14T11:39:04.131Z,81.10
2019-05-14T11:41:32.076Z,79.87
2019-05-14T11:44:00.803Z,77.13
2019-05-14T11:46:43.613Z,75.93
2019-05-14T11:49:00.148Z,75.58
2019-05-14T11:51:54.713Z,77.23
2019-05-14T11:53:59.339Z,74.51
2019-05-14T11:56:29.447Z,73.53
2019-05-14T11:58:59.062Z,73.55
2019-05-14T12:01:29.780Z,71.58
2019-05-14T12:03:59.734Z,75.20
2019-05-14T12:06:30.418Z,73.18
2019-05-14T12:08:59.177Z,74.96
2019-05-14T12:11:29.080Z,76.87
2019-05-14T12:13:59.880Z,79.27
2019-05-14T12:16:29.238Z,80.43
2019-05-14T12:18:59.123Z,79.47
2019-05-14T12:21:28.872Z,78.67
2019-05-14T12:24:04.022Z,80.04
2019-05-14T12:26:28.471Z,80.12
2019-05-14T12:28:59.456Z,80.26
2019-05-14T12:31:28.905Z,80.26
2019-05-14T12:33:58.427Z,80.84
2019-05-14T12:36:29.242Z,80.40
2019-05-14T12:38:59.165Z,81.57
2019-05-14T12:41:38.239Z,79.72
2019-05-14T13:13:19.730Z,75.42
2019-05-14T13:15:48.590Z,74.45
2019-05-14T13:18:19.329Z,75.81
2019-05-14T13:20:48.255Z,74.76
2019-05-14T13:23:18.382Z,74.90
2019-05-14T13:25:47.250Z,73.45
2019-05-14T13:28:16.088Z,73.90
2019-05-14T13:30:44.819Z,73.55
2019-05-14T13:33:13.541Z,73.00
2019-05-14T13:35:42.492Z,73.46
2019-05-14T13:38:14.308Z,73.71
2019-05-14T13:40:41.672Z,73.55
2019-05-14T13:43:14.407Z,70.08
2019-05-14T13:45:41.964Z,72.98
2019-05-14T13:48:10.690Z,73.23
2019-05-14T13:50:40.253Z,71.92
2019-05-14T13:53:12.757Z,71.66
2019-05-14T13:55:46.238Z,73.67
2019-05-14T13:58:10.166Z,73.29
2019-05-14T14:00:38.910Z,72.84
2019-05-14T14:03:10.079Z,73.57
2019-05-14T14:05:39.201Z,73.44
2019-05-14T14:08:08.774Z,75.30
2019-05-14T14:10:44.802Z,78.19
2019-05-14T14:13:11.155Z,77.32
2019-05-14T14:15:38.963Z,78.73
2019-05-14T14:18:07.691Z,80.07
2019-05-14T14:20:39.248Z,79.83
2019-05-14T14:23:18.933Z,79.81
2019-05-14T14:25:39.486Z,81.98
2019-05-14T14:31:44.996Z,82.81
2019-05-14T14:34:13.724Z,82.49
2019-05-14T14:36:42.454Z,80.40
2019-05-14T14:39:11.265Z,83.51
2019-05-14T14:41:40.023Z,83.32
2019-05-14T14:44:09.065Z,83.99
2019-05-14T14:46:39.139Z,83.38
2019-05-14T14:49:10.923Z,83.83
2019-05-14T14:51:44.033Z,82.27
2019-05-14T14:54:15.238Z,82.07
2019-05-14T14:56:39.590Z,80.46
2019-05-14T14:59:09.535Z,80.58
2019-05-14T15:01:40.258Z,81.00
2019-05-14T15:04:13.629Z,80.21
2019-05-14T15:06:39.996Z,79.17
2019-05-14T15:09:09.712Z,77.76
2019-05-14T15:11:39.599Z,77.07
2019-05-14T15:14:08.646Z,78.20
2019-05-14T15:16:39.146Z,77.63
2019-05-14T15:19:09.497Z,77.75
2019-05-14T15:21:38.349Z,77.95
2019-05-14T15:24:15.168Z,76.89
2019-05-14T15:26:37.595Z,78.43
2019-05-14T15:29:09.673Z,78.39
2019-05-14T15:31:38.599Z,77.78
2019-05-14T15:34:08.979Z,78.67
2019-05-14T15:36:41.243Z,79.25
2019-05-14T15:39:10.081Z,79.06
2019-05-14T15:41:39.501Z,81.21
2019-05-14T15:44:09.008Z,80.11
2019-05-14T15:46:41.919Z,79.88
2019-05-14T15:49:09.113Z,80.69
2019-05-14T15:51:39.780Z,81.35
2019-05-14T15:54:34.533Z,80.55
2019-05-14T15:56:39.469Z,80.87
2019-05-14T15:59:08.851Z,80.84
2019-05-14T16:01:39.794Z,81.79
2019-05-14T16:04:11.413Z,82.82
2019-05-14T16:06:38.753Z,83.34
2019-05-14T16:09:07.830Z,82.69
2019-05-14T16:11:39.168Z,82.93
2019-05-14T16:14:08.233Z,84.15
2019-05-14T16:16:39.215Z,83.17
2019-05-14T16:19:08.362Z,83.76
2019-05-14T16:21:38.623Z,84.22
2019-05-14T16:24:08.299Z,84.35
2019-05-14T16:26:38.370Z,84.59
2019-05-14T16:29:08.888Z,85.13
2019-05-14T16:31:43.230Z,85.19
2019-05-14T16:34:09.809Z,85.00
2019-05-14T16:36:41.336Z,85.30
2019-05-14T16:39:09.791Z,85.47
2019-05-14T16:41:39.050Z,85.83
2019-05-14T16:44:09.061Z,85.59
2019-05-14T16:46:38.563Z,85.60
2019-05-14T16:49:08.947Z,85.04
2019-05-14T16:51:37.865Z,85.44
2019-05-14T16:54:06.662Z,86.17
2019-05-14T16:56:35.403Z,86.22
2019-05-14T16:59:04.154Z,86.16
2019-05-14T17:01:33.944Z,86.63
2019-05-14T17:04:04.733Z,87.61
2019-05-14T17:06:34.849Z,87.21
2019-05-14T17:09:05.073Z,87.81
2019-05-14T17:11:33.784Z,87.88
2019-05-14T17:14:02.607Z,87.51
2019-05-14T17:16:31.472Z,87.77
2019-05-14T17:19:00.231Z,88.63
2019-05-14T17:21:28.957Z,89.59
2019-05-14T17:23:58.150Z,90.87
2019-05-14T17:26:28.772Z,91.34
2019-05-14T17:28:59.671Z,92.08
2019-05-14T17:31:30.914Z,92.74
2019-05-14T17:33:58.723Z,93.45
2019-05-14T17:36:28.286Z,93.94
2019-05-14T17:38:58.625Z,93.70
2019-05-14T17:41:27.501Z,93.81
2019-05-14T17:43:58.461Z,94.22
2019-05-14T17:46:28.925Z,94.96
2019-05-14T17:48:59.114Z,94.53
2019-05-14T17:51:28.428Z,94.11
2019-05-14T17:53:58.667Z,95.02
2019-05-14T17:56:28.394Z,95.46
2019-05-14T17:58:57.938Z,95.70
2019-05-14T18:01:29.006Z,96.17
2019-05-14T18:03:58.471Z,96.20
2019-05-14T18:06:28.573Z,95.63
2019-05-14T18:08:58.680Z,95.44
2019-05-14T18:11:28.405Z,96.19
2019-05-14T18:13:58.970Z,96.91
2019-05-14T18:16:28.504Z,97.95
2019-05-14T18:18:58.319Z,98.94
2019-05-14T18:21:28.504Z,99.04
2019-05-14T18:23:58.599Z,99.11
2019-05-14T18:26:38.588Z,99.49
2019-05-14T18:29:08.749Z,100.00
2019-05-14T18:31:44.571Z,100.00
2019-05-14T18:34:08.122Z,100.00
2019-05-14T18:36:39.519Z,100.00
2019-05-14T18:39:09.258Z,100.00
2019-05-14T18:41:39.461Z,100.00
2019-05-14T18:44:08.521Z,100.00
2019-05-14T18:46:39.408Z,100.00
2019-05-14T18:49:08.790Z,100.00
2019-05-14T18:51:37.643Z,100.00
2019-05-14T18:54:08.015Z,100.00
2019-05-14T18:56:38.401Z,100.00
2019-05-14T18:59:09.089Z,100.00
2019-05-14T19:01:39.722Z,100.00
2019-05-14T19:04:08.376Z,100.00
2019-05-14T19:06:38.887Z,100.00
2019-05-14T19:09:10.705Z,100.00
2019-05-14T19:11:39.107Z,100.00
2019-05-14T19:14:09.001Z,100.00
2019-05-14T19:16:38.465Z,100.00
2019-05-14T19:19:08.091Z,100.00
2019-05-14T19:21:38.239Z,100.00
2019-05-14T19:24:09.068Z,100.00
2019-05-14T19:26:40.311Z,100.00
2019-05-14T19:29:08.752Z,100.00
2019-05-14T19:31:38.670Z,100.00
2019-05-14T19:34:08.499Z,100.00
2019-05-14T19:36:39.765Z,100.00
2019-05-14T19:39:08.568Z,100.00
2019-05-14T19:41:38.915Z,100.00
2019-05-14T19:44:08.792Z,100.00
2019-05-14T19:46:38.615Z,100.00
2019-05-14T19:49:08.162Z,100.00
2019-05-14T19:51:38.699Z,100.00
2019-05-14T19:54:08.256Z,100.00
2019-05-14T19:56:51.889Z,100.00
2019-05-14T19:59:09.076Z,100.00
2019-05-14T20:01:38.694Z,100.00
2019-05-14T20:04:09.526Z,100.00
2019-05-14T20:06:38.857Z,100.00
2019-05-14T20:09:09.562Z,100.00
2019-05-14T20:11:39.634Z,100.00
2019-05-14T20:14:08.899Z,99.87
2019-05-14T20:16:39.226Z,99.84
2019-05-14T20:19:08.808Z,100.00
2019-05-14T20:21:38.960Z,100.00
2019-05-14T20:24:07.929Z,99.55
2019-05-14T20:26:38.883Z,99.63
2019-05-14T20:29:08.721Z,99.73
2019-05-14T20:31:38.984Z,100.00
2019-05-14T20:34:08.469Z,99.63
2019-05-14T20:36:39.040Z,99.69
2019-05-14T20:39:08.662Z,99.79
2019-05-14T20:41:38.507Z,100.00
2019-05-14T20:44:07.592Z,99.80
2019-05-14T20:46:38.259Z,99.57
2019-05-14T20:49:08.862Z,99.56
2019-05-14T20:51:38.907Z,99.00
2019-05-14T20:54:08.912Z,99.14
2019-05-14T20:56:39.992Z,99.18
2019-05-14T20:59:08.424Z,98.88
2019-05-14T21:01:38.685Z,98.81
2019-05-14T21:04:09.024Z,98.70
2019-05-14T21:06:39.024Z,98.80
2019-05-14T21:09:08.060Z,98.82
2019-05-14T21:11:38.414Z,99.59
2019-05-14T21:14:08.918Z,99.92
2019-05-14T21:16:39.267Z,100.00
2019-05-14T21:19:08.618Z,100.00
2019-05-14T21:21:38.305Z,100.00
2019-05-14T21:24:10.097Z,100.00
2019-05-14T21:26:40.125Z,100.00
2019-05-14T21:29:09.205Z,100.00
2019-05-14T21:31:38.479Z,100.00
2019-05-14T21:34:08.193Z,100.00
2019-05-14T21:36:39.104Z,100.00
2019-05-14T21:39:08.092Z,100.00
2019-05-14T21:41:38.726Z,100.00
2019-05-14T21:44:08.559Z,100.00
2019-05-14T21:46:39.821Z,100.00
2019-05-14T21:49:11.131Z,100.00
2019-05-14T21:51:39.472Z,100.00
2019-05-14T21:54:09.451Z,100.00
2019-05-14T21:56:38.805Z,100.00
2019-05-14T21:59:09.595Z,100.00
2019-05-14T22:01:39.326Z,100.00
2019-05-14T22:04:11.476Z,100.00
2019-05-14T22:06:41.272Z,100.00
2019-05-14T22:09:10.207Z,100.00
2019-05-14T22:11:39.452Z,100.00
2019-05-14T22:14:08.512Z,100.00
2019-05-14T22:16:38.073Z,100.00
2019-05-14T22:19:08.478Z,100.00
2019-05-14T22:21:38.583Z,100.00
2019-05-14T22:24:07.904Z,100.00
2019-05-14T22:26:38.754Z,100.00
2019-05-14T22:29:08.342Z,100.00
2019-05-14T22:31:38.745Z,100.00
2019-05-14T22:34:08.927Z,100.00
2019-05-14T22:36:38.647Z,100.00
2019-05-14T22:39:07.607Z,100.00
2019-05-14T22:41:38.307Z,100.00
2019-05-14T22:44:09.066Z,100.00
2019-05-14T22:46:39.964Z,100.00
2019-05-14T22:49:09.208Z,100.00
2019-05-14T22:51:38.535Z,100.00
2019-05-14T22:54:08.726Z,100.00
2019-05-14T22:56:38.926Z,100.00
2019-05-14T22:59:08.011Z,100.00
2019-05-14T23:01:38.640Z,100.00
2019-05-14T23:04:08.997Z,99.85
2019-05-14T23:06:38.378Z,99.23
2019-05-14T23:09:09.046Z,99.14
2019-05-14T23:11:38.450Z,99.33
2019-05-14T23:14:07.626Z,99.22
2019-05-14T23:16:39.245Z,98.65
2019-05-14T23:19:07.964Z,98.13
2019-05-14T23:21:39.094Z,98.18
2019-05-14T23:24:09.203Z,98.34
2019-05-14T23:26:38.159Z,98.15
2019-05-14T23:29:07.065Z,98.19
2019-05-14T23:31:38.244Z,98.34
2019-05-14T23:34:06.605Z,98.74
2019-05-14T23:36:35.803Z,98.69
2019-05-14T23:39:08.869Z,98.64
2019-05-14T23:41:38.319Z,98.56
2019-05-14T23:44:08.351Z,98.42
2019-05-14T23:46:37.497Z,98.64
2019-05-14T23:49:08.741Z,98.69
2019-05-14T23:51:38.516Z,98.70
2019-05-14T23:54:08.776Z,98.68
2019-05-14T23:56:38.388Z,98.60
2019-05-14T23:59:09.310Z,98.47
